KAL908 EGLL-RKSI
Flight info
| Callsign | KAL908 |
|---|---|
| Flight time | N/A |
| Altitude | 33000 |
| Route | DET L6 DVR UL9 KONAN UL607 MATUG DCT GUBAX DCT KOMIB L984 SULUS Z650 VEMUT DCT PEPIK DCT BUDOP DCT DINRO/N0480F350 N743 UDROS UM859 KARDE UN644 ROLIN DCT TAGAR DCT BT DCT BARAD M747 SUBUT T916 BALUN/K0889F350 T916 TUROK/K0882F370 T916 PIGAL M610 RULAD/K0878S1130 A343 POSOT B215 FKG W188 LIKMI W270 DKO/K0876S1190 W69 HUR B339 LADIX W34 VAPGU W100 ORAVA W201 UNSEK A326 DONVO G597 AGAVO/N0473F390 Y644 REBIT REBIT1Y |
| Aircraft | B77W/H-SDE1E2E3FGHIJ2J3J4J5M1RWXY/LB1D1 |
Departure
| Time | 2026-05-07 02:34 |
|---|---|
| Airport | London Heathrow Airport (EGLL) |
Arrival
| Time | N/A |
|---|---|
| Airport | Incheon International Airport (RKSI) |
| Time | Latitude | Longitude | Altitude | Speed | Heading |
|---|---|---|---|---|---|
| 2026-05-07 02:13 | 51.46186 | -0.44639 | 77 ft | 0 kts | 131° |
| 2026-05-07 02:21 | 51.46192 | -0.44651 | 95 ft | 3 kts | 131° |
| 2026-05-07 02:22 | 51.46206 | -0.44676 | 94 ft | 3 kts | 131° |
| 2026-05-07 02:22 | 51.46218 | -0.44699 | 94 ft | 2 kts | 131° |
| 2026-05-07 02:22 | 51.46229 | -0.44721 | 92 ft | 3 kts | 116° |
| 2026-05-07 02:22 | 51.46235 | -0.44743 | 91 ft | 3 kts | 90° |
| 2026-05-07 02:23 | 51.46234 | -0.44764 | 91 ft | 3 kts | 58° |
| 2026-05-07 02:23 | 51.46223 | -0.44786 | 95 ft | 3 kts | 39° |
| 2026-05-07 02:23 | 51.46207 | -0.44806 | 91 ft | 2 kts | 40° |
| 2026-05-07 02:23 | 51.46202 | -0.44813 | 94 ft | 0 kts | 41° |
| 2026-05-07 02:27 | 51.46279 | -0.44735 | 94 ft | 18 kts | 358° |
| 2026-05-07 02:27 | 51.46317 | -0.44891 | 94 ft | 26 kts | 271° |
| 2026-05-07 02:28 | 51.46316 | -0.45239 | 94 ft | 32 kts | 270° |
| 2026-05-07 02:28 | 51.46318 | -0.45613 | 97 ft | 23 kts | 275° |
| 2026-05-07 02:28 | 51.46322 | -0.45873 | 92 ft | 23 kts | 270° |
| 2026-05-07 02:28 | 51.46321 | -0.46134 | 94 ft | 23 kts | 269° |
| 2026-05-07 02:29 | 51.46321 | -0.46393 | 94 ft | 23 kts | 270° |
| 2026-05-07 02:29 | 51.46320 | -0.46653 | 94 ft | 23 kts | 268° |
| 2026-05-07 02:29 | 51.46322 | -0.46910 | 93 ft | 23 kts | 271° |
| 2026-05-07 02:29 | 51.46322 | -0.47170 | 92 ft | 23 kts | 267° |
| 2026-05-07 02:30 | 51.46333 | -0.47429 | 96 ft | 23 kts | 277° |
| 2026-05-07 02:30 | 51.46318 | -0.47681 | 97 ft | 23 kts | 245° |
| 2026-05-07 02:30 | 51.46255 | -0.47918 | 96 ft | 23 kts | 262° |
| 2026-05-07 02:30 | 51.46251 | -0.48178 | 90 ft | 23 kts | 270° |
| 2026-05-07 02:31 | 51.46249 | -0.48438 | 90 ft | 23 kts | 269° |
| 2026-05-07 02:31 | 51.46287 | -0.48683 | 95 ft | 23 kts | 313° |
| 2026-05-07 02:31 | 51.46380 | -0.48747 | 94 ft | 8 kts | 353° |
| 2026-05-07 02:31 | 51.46448 | -0.48735 | 96 ft | 14 kts | 30° |
| 2026-05-07 02:32 | 51.46476 | -0.48602 | 96 ft | 0 kts | 88° |
| 2026-05-07 02:33 | 51.46476 | -0.48594 | 96 ft | 1 kts | 88° |
| 2026-05-07 02:33 | 51.46478 | -0.48429 | 94 ft | 47 kts | 91° |
| 2026-05-07 02:33 | 51.46482 | -0.47388 | 92 ft | 141 kts | 89° |
| 2026-05-07 02:33 | 51.46509 | -0.45365 | 244 ft | 209 kts | 90° |
| 2026-05-07 02:34 | 51.46467 | -0.43027 | 1439 ft | 211 kts | 95° |
| 2026-05-07 02:34 | 51.46262 | -0.40718 | 2720 ft | 212 kts | 104° |
| 2026-05-07 02:34 | 51.45504 | -0.38654 | 3166 ft | 227 kts | 143° |
| 2026-05-07 02:34 | 51.44062 | -0.37370 | 3325 ft | 246 kts | 147° |
| 2026-05-07 02:35 | 51.42933 | -0.35292 | 3773 ft | 257 kts | 109° |
| 2026-05-07 02:35 | 51.42631 | -0.32458 | 4408 ft | 261 kts | 96° |
| 2026-05-07 02:35 | 51.42316 | -0.29560 | 5133 ft | 266 kts | 105° |
| 2026-05-07 02:35 | 51.41879 | -0.26693 | 5914 ft | 267 kts | 96° |
| 2026-05-07 02:36 | 51.41827 | -0.23735 | 6565 ft | 271 kts | 93° |
| 2026-05-07 02:36 | 51.41631 | -0.20711 | 7245 ft | 275 kts | 99° |
| 2026-05-07 02:36 | 51.41285 | -0.17673 | 7987 ft | 279 kts | 101° |
| 2026-05-07 02:36 | 51.40889 | -0.14606 | 8715 ft | 283 kts | 102° |
| 2026-05-07 02:37 | 51.40469 | -0.11504 | 9448 ft | 288 kts | 102° |
| 2026-05-07 02:37 | 51.40033 | -0.08346 | 10129 ft | 293 kts | 102° |
| 2026-05-07 02:37 | 51.39583 | -0.05095 | 10548 ft | 308 kts | 102° |
| 2026-05-07 02:37 | 51.39100 | -0.01608 | 10726 ft | 332 kts | 102° |
| 2026-05-07 02:38 | 51.38587 | 0.02080 | 10912 ft | 355 kts | 102° |
| 2026-05-07 02:38 | 51.38034 | 0.06044 | 11272 ft | 372 kts | 102° |
| 2026-05-07 02:38 | 51.37461 | 0.10138 | 11924 ft | 381 kts | 102° |
| 2026-05-07 02:38 | 51.36874 | 0.14316 | 12688 ft | 386 kts | 102° |
| 2026-05-07 02:39 | 51.36282 | 0.18526 | 13521 ft | 390 kts | 102° |
| 2026-05-07 02:39 | 51.35682 | 0.22775 | 14308 ft | 394 kts | 102° |
| 2026-05-07 02:39 | 51.35075 | 0.27058 | 15017 ft | 398 kts | 102° |
| 2026-05-07 02:39 | 51.34458 | 0.31410 | 15723 ft | 403 kts | 102° |
| 2026-05-07 02:40 | 51.33833 | 0.35806 | 16352 ft | 407 kts | 102° |
| 2026-05-07 02:40 | 51.33210 | 0.40185 | 17052 ft | 412 kts | 102° |
| 2026-05-07 02:40 | 51.32568 | 0.44671 | 17768 ft | 416 kts | 103° |
| 2026-05-07 02:40 | 51.31918 | 0.49197 | 18438 ft | 420 kts | 103° |
| 2026-05-07 02:41 | 51.31260 | 0.53762 | 19046 ft | 424 kts | 103° |
| 2026-05-07 02:41 | 51.30590 | 0.58387 | 19666 ft | 428 kts | 103° |
| 2026-05-07 02:41 | 51.29873 | 0.63016 | 20291 ft | 431 kts | 105° |
| 2026-05-07 02:41 | 51.29048 | 0.67647 | 20893 ft | 435 kts | 107° |
| 2026-05-07 02:42 | 51.28175 | 0.72294 | 21489 ft | 439 kts | 107° |
| 2026-05-07 02:42 | 51.27286 | 0.76989 | 22069 ft | 443 kts | 107° |
| 2026-05-07 02:42 | 51.26407 | 0.81662 | 22641 ft | 447 kts | 107° |
| 2026-05-07 02:42 | 51.25517 | 0.86435 | 23206 ft | 451 kts | 107° |
| 2026-05-07 02:43 | 51.24625 | 0.91253 | 23760 ft | 455 kts | 107° |
| 2026-05-07 02:43 | 51.23726 | 0.96118 | 24205 ft | 458 kts | 107° |
| 2026-05-07 02:43 | 51.22820 | 1.01020 | 24681 ft | 462 kts | 107° |
| 2026-05-07 02:43 | 51.21908 | 1.05939 | 25135 ft | 465 kts | 107° |
| 2026-05-07 02:44 | 51.20986 | 1.10903 | 25579 ft | 468 kts | 107° |
| 2026-05-07 02:44 | 51.20056 | 1.15893 | 26008 ft | 471 kts | 107° |
| 2026-05-07 02:44 | 51.19117 | 1.20914 | 26445 ft | 474 kts | 107° |
| 2026-05-07 02:44 | 51.18186 | 1.25882 | 26861 ft | 477 kts | 107° |
| 2026-05-07 02:45 | 51.17231 | 1.30969 | 27258 ft | 480 kts | 107° |
| 2026-05-07 02:45 | 51.16417 | 1.36148 | 27646 ft | 483 kts | 101° |
| 2026-05-07 02:45 | 51.15926 | 1.41453 | 28028 ft | 486 kts | 95° |
| 2026-05-07 02:45 | 51.15686 | 1.46832 | 28412 ft | 489 kts | 94° |
| 2026-05-07 02:46 | 51.15462 | 1.52250 | 28759 ft | 491 kts | 94° |
| 2026-05-07 02:46 | 51.15228 | 1.57691 | 29095 ft | 494 kts | 94° |
| 2026-05-07 02:46 | 51.14980 | 1.63088 | 29421 ft | 496 kts | 94° |
| 2026-05-07 02:46 | 51.14711 | 1.68638 | 29849 ft | 496 kts | 95° |
| 2026-05-07 02:47 | 51.14441 | 1.74025 | 30325 ft | 494 kts | 95° |
| 2026-05-07 02:47 | 51.14163 | 1.79464 | 30758 ft | 492 kts | 95° |
| 2026-05-07 02:47 | 51.13885 | 1.84885 | 31158 ft | 491 kts | 95° |
| 2026-05-07 02:47 | 51.13606 | 1.90289 | 31511 ft | 490 kts | 95° |
| 2026-05-07 02:48 | 51.13326 | 1.95690 | 31873 ft | 489 kts | 95° |
| 2026-05-07 02:48 | 51.13044 | 2.01088 | 32233 ft | 489 kts | 95° |
| 2026-05-07 02:48 | 51.12759 | 2.06465 | 32590 ft | 488 kts | 95° |
| 2026-05-07 02:48 | 51.12472 | 2.11843 | 32913 ft | 487 kts | 95° |
| 2026-05-07 02:49 | 51.11892 | 2.22598 | 33012 ft | 492 kts | 95° |
| 2026-05-07 02:49 | 51.11301 | 2.33377 | 32995 ft | 486 kts | 95° |
| 2026-05-07 02:50 | 51.10706 | 2.44064 | 32996 ft | 485 kts | 95° |
| 2026-05-07 02:50 | 51.10101 | 2.54766 | 32998 ft | 485 kts | 95° |
| 2026-05-07 02:51 | 51.09374 | 2.65436 | 32993 ft | 486 kts | 100° |
| 2026-05-07 02:51 | 51.07683 | 2.75769 | 33002 ft | 487 kts | 107° |
| 2026-05-07 02:52 | 51.05741 | 2.86093 | 32998 ft | 487 kts | 107° |
| 2026-05-07 02:52 | 51.03823 | 2.96434 | 32995 ft | 488 kts | 106° |
| 2026-05-07 02:53 | 51.01923 | 3.06783 | 32992 ft | 488 kts | 106° |
| 2026-05-07 02:53 | 51.00031 | 3.17058 | 32990 ft | 488 kts | 106° |
| 2026-05-07 02:54 | 50.98119 | 3.27379 | 32993 ft | 487 kts | 106° |
| 2026-05-07 02:54 | 50.96197 | 3.37683 | 32986 ft | 486 kts | 106° |
| 2026-05-07 02:55 | 50.94272 | 3.47951 | 32994 ft | 486 kts | 106° |
| 2026-05-07 02:55 | 50.92351 | 3.58146 | 32996 ft | 485 kts | 106° |
| 2026-05-07 02:56 | 50.90407 | 3.68374 | 32994 ft | 485 kts | 107° |
| 2026-05-07 02:56 | 50.88430 | 3.78585 | 32998 ft | 484 kts | 107° |
| 2026-05-07 02:57 | 50.86446 | 3.88770 | 32994 ft | 484 kts | 107° |
| 2026-05-07 02:57 | 50.84471 | 3.98877 | 32994 ft | 484 kts | 107° |
| 2026-05-07 02:58 | 50.82478 | 4.09037 | 32993 ft | 483 kts | 107° |
| 2026-05-07 02:58 | 50.80478 | 4.19173 | 32990 ft | 483 kts | 107° |
| 2026-05-07 02:59 | 50.78474 | 4.29280 | 32994 ft | 482 kts | 107° |
| 2026-05-07 02:59 | 50.76803 | 4.37668 | 32995 ft | 481 kts | 107° |
| 2026-05-07 03:00 | 50.74459 | 4.49371 | 32994 ft | 481 kts | 107° |
| 2026-05-07 03:00 | 50.72436 | 4.59427 | 32997 ft | 480 kts | 107° |
| 2026-05-07 03:01 | 50.70460 | 4.69483 | 32995 ft | 480 kts | 106° |
| 2026-05-07 03:01 | 50.68516 | 4.79553 | 32993 ft | 480 kts | 106° |
| 2026-05-07 03:02 | 50.66568 | 4.89531 | 32992 ft | 480 kts | 107° |
| 2026-05-07 03:02 | 50.64556 | 4.99559 | 32994 ft | 480 kts | 107° |
| 2026-05-07 03:03 | 50.62497 | 5.09546 | 32993 ft | 480 kts | 108° |
| 2026-05-07 03:03 | 50.60781 | 5.17848 | 32993 ft | 480 kts | 108° |
| 2026-05-07 03:04 | 50.58719 | 5.27825 | 32992 ft | 480 kts | 108° |
| 2026-05-07 03:04 | 50.56646 | 5.37812 | 32994 ft | 480 kts | 108° |
| 2026-05-07 03:05 | 50.54231 | 5.49389 | 32990 ft | 480 kts | 108° |
| 2026-05-07 03:05 | 50.52495 | 5.57671 | 32993 ft | 480 kts | 108° |
| 2026-05-07 03:06 | 50.50730 | 5.67768 | 32994 ft | 479 kts | 100° |
| 2026-05-07 03:06 | 50.49478 | 5.78049 | 32984 ft | 480 kts | 101° |
| 2026-05-07 03:07 | 50.47933 | 5.89979 | 32975 ft | 480 kts | 101° |
| 2026-05-07 03:07 | 50.46584 | 6.00242 | 32967 ft | 480 kts | 101° |
| 2026-05-07 03:08 | 50.45461 | 6.08763 | 32967 ft | 480 kts | 102° |
| 2026-05-07 03:08 | 50.43881 | 6.20693 | 32959 ft | 481 kts | 102° |
| 2026-05-07 03:09 | 50.42735 | 6.29291 | 32954 ft | 481 kts | 102° |
| 2026-05-07 03:09 | 50.41454 | 6.39502 | 32947 ft | 480 kts | 97° |
| 2026-05-07 03:10 | 50.40662 | 6.49881 | 32951 ft | 479 kts | 96° |
| 2026-05-07 03:10 | 50.39899 | 6.60252 | 32936 ft | 479 kts | 96° |
| 2026-05-07 03:11 | 50.39106 | 6.70616 | 32940 ft | 479 kts | 97° |
| 2026-05-07 03:11 | 50.38295 | 6.80904 | 32938 ft | 479 kts | 97° |
| 2026-05-07 03:12 | 50.37466 | 6.91252 | 32938 ft | 479 kts | 97° |
| 2026-05-07 03:12 | 50.36629 | 7.01596 | 32936 ft | 479 kts | 97° |
| 2026-05-07 03:13 | 50.35781 | 7.11964 | 32937 ft | 480 kts | 97° |
| 2026-05-07 03:13 | 50.34929 | 7.22273 | 32934 ft | 481 kts | 97° |
| 2026-05-07 03:14 | 50.34061 | 7.32657 | 32937 ft | 482 kts | 97° |
| 2026-05-07 03:15 | 50.32738 | 7.48274 | 32932 ft | 483 kts | 98° |
| 2026-05-07 03:15 | 50.31843 | 7.58692 | 32926 ft | 483 kts | 98° |
| 2026-05-07 03:16 | 50.30946 | 7.69030 | 32932 ft | 482 kts | 98° |
| 2026-05-07 03:16 | 50.30035 | 7.79419 | 32922 ft | 482 kts | 98° |
| 2026-05-07 03:17 | 50.29119 | 7.89776 | 32929 ft | 481 kts | 98° |
| 2026-05-07 03:17 | 50.28225 | 8.00143 | 32923 ft | 481 kts | 98° |
| 2026-05-07 03:18 | 50.27371 | 8.10430 | 32925 ft | 480 kts | 98° |
| 2026-05-07 03:18 | 50.26502 | 8.20778 | 32919 ft | 481 kts | 98° |
| 2026-05-07 03:19 | 50.25617 | 8.31134 | 32925 ft | 481 kts | 98° |
| 2026-05-07 03:19 | 50.24720 | 8.41474 | 32922 ft | 480 kts | 98° |
| 2026-05-07 03:20 | 50.23821 | 8.51744 | 32913 ft | 480 kts | 98° |
| 2026-05-07 03:20 | 50.22907 | 8.62068 | 32905 ft | 479 kts | 98° |
| 2026-05-07 03:21 | 50.21987 | 8.72359 | 32908 ft | 479 kts | 98° |
| 2026-05-07 03:21 | 50.21058 | 8.82646 | 32901 ft | 478 kts | 99° |
| 2026-05-07 03:22 | 50.20120 | 8.92922 | 32901 ft | 479 kts | 99° |
| 2026-05-07 03:22 | 50.19176 | 9.03156 | 32898 ft | 479 kts | 99° |
| 2026-05-07 03:23 | 50.18218 | 9.13450 | 32891 ft | 480 kts | 99° |
| 2026-05-07 03:23 | 50.17249 | 9.23762 | 32891 ft | 481 kts | 99° |
| 2026-05-07 03:24 | 50.16270 | 9.34079 | 32889 ft | 481 kts | 99° |
| 2026-05-07 03:24 | 50.15286 | 9.44336 | 32880 ft | 482 kts | 99° |
| 2026-05-07 03:25 | 50.14288 | 9.54649 | 32879 ft | 481 kts | 99° |
| 2026-05-07 03:25 | 50.13280 | 9.64970 | 32875 ft | 481 kts | 99° |
| 2026-05-07 03:26 | 50.12264 | 9.75268 | 32874 ft | 481 kts | 100° |
| 2026-05-07 03:26 | 50.11240 | 9.85554 | 32871 ft | 480 kts | 100° |
| 2026-05-07 03:27 | 50.10214 | 9.95767 | 32873 ft | 480 kts | 100° |
| 2026-05-07 03:27 | 50.09175 | 10.06025 | 32871 ft | 480 kts | 100° |
| 2026-05-07 03:28 | 50.08128 | 10.16279 | 32868 ft | 479 kts | 101° |
| 2026-05-07 03:28 | 50.07263 | 10.26566 | 32864 ft | 481 kts | 94° |
| 2026-05-07 03:29 | 50.07308 | 10.36989 | 32866 ft | 482 kts | 91° |
| 2026-05-07 03:29 | 50.07415 | 10.47339 | 32867 ft | 482 kts | 92° |
| 2026-05-07 03:30 | 50.07463 | 10.57784 | 32872 ft | 482 kts | 92° |
| 2026-05-07 03:30 | 50.07427 | 10.68236 | 32859 ft | 482 kts | 97° |
| 2026-05-07 03:31 | 50.06368 | 10.78475 | 32864 ft | 478 kts | 108° |
| 2026-05-07 03:31 | 50.04330 | 10.88275 | 32861 ft | 476 kts | 112° |
| 2026-05-07 03:32 | 50.02229 | 10.97977 | 32859 ft | 477 kts | 112° |
| 2026-05-07 03:32 | 50.00147 | 11.07774 | 32865 ft | 477 kts | 112° |
| 2026-05-07 03:33 | 49.98073 | 11.17568 | 32860 ft | 477 kts | 112° |
| 2026-05-07 03:33 | 49.95986 | 11.27341 | 32861 ft | 476 kts | 112° |
| 2026-05-07 03:34 | 49.93910 | 11.37030 | 32860 ft | 476 kts | 112° |
| 2026-05-07 03:34 | 49.91909 | 11.46833 | 32863 ft | 477 kts | 110° |
| 2026-05-07 03:35 | 49.90180 | 11.56763 | 32858 ft | 477 kts | 110° |
| 2026-05-07 03:35 | 49.88403 | 11.66662 | 32859 ft | 477 kts | 109° |
| 2026-05-07 03:36 | 49.87317 | 11.76794 | 32863 ft | 481 kts | 102° |
| 2026-05-07 03:36 | 49.86481 | 11.87089 | 32851 ft | 481 kts | 102° |
| 2026-05-07 03:37 | 49.85579 | 11.97365 | 32860 ft | 481 kts | 103° |
| 2026-05-07 03:37 | 49.84640 | 12.07629 | 32854 ft | 482 kts | 103° |
| 2026-05-07 03:38 | 49.83688 | 12.17906 | 32856 ft | 482 kts | 103° |
| 2026-05-07 03:38 | 49.82741 | 12.28103 | 32849 ft | 482 kts | 103° |
| 2026-05-07 03:39 | 49.81807 | 12.38392 | 32856 ft | 482 kts | 103° |
| 2026-05-07 03:39 | 49.80675 | 12.48594 | 32852 ft | 478 kts | 111° |
| 2026-05-07 03:40 | 49.78732 | 12.58373 | 32848 ft | 476 kts | 113° |
| 2026-05-07 03:40 | 49.76733 | 12.68075 | 32867 ft | 476 kts | 113° |
| 2026-05-07 03:41 | 49.74738 | 12.77863 | 32870 ft | 478 kts | 113° |
| 2026-05-07 03:41 | 49.72751 | 12.87672 | 32873 ft | 479 kts | 113° |
| 2026-05-07 03:42 | 49.70759 | 12.97493 | 32883 ft | 480 kts | 114° |
| 2026-05-07 03:42 | 49.68752 | 13.07331 | 32877 ft | 480 kts | 114° |
| 2026-05-07 03:43 | 49.66750 | 13.17094 | 32878 ft | 481 kts | 114° |
| 2026-05-07 03:43 | 49.64720 | 13.26941 | 32881 ft | 481 kts | 114° |
| 2026-05-07 03:44 | 49.62681 | 13.36784 | 32882 ft | 482 kts | 114° |
| 2026-05-07 03:44 | 49.60632 | 13.46623 | 32878 ft | 482 kts | 114° |
| 2026-05-07 03:45 | 49.58586 | 13.56400 | 32881 ft | 483 kts | 114° |
| 2026-05-07 03:45 | 49.56516 | 13.66247 | 32892 ft | 483 kts | 114° |
| 2026-05-07 03:46 | 49.54436 | 13.76092 | 32891 ft | 484 kts | 115° |
| 2026-05-07 03:46 | 49.52345 | 13.85943 | 32905 ft | 484 kts | 115° |
| 2026-05-07 03:47 | 49.50258 | 13.95723 | 32901 ft | 485 kts | 115° |
| 2026-05-07 03:47 | 49.48145 | 14.05578 | 32890 ft | 485 kts | 115° |
| 2026-05-07 03:48 | 49.46025 | 14.15424 | 32898 ft | 485 kts | 115° |
| 2026-05-07 03:48 | 49.43892 | 14.25278 | 32896 ft | 486 kts | 115° |
| 2026-05-07 03:49 | 49.41748 | 14.35135 | 32894 ft | 487 kts | 116° |
| 2026-05-07 03:49 | 49.39609 | 14.44922 | 32893 ft | 487 kts | 116° |
| 2026-05-07 03:50 | 49.37441 | 14.54796 | 32893 ft | 488 kts | 116° |
| 2026-05-07 03:50 | 49.35263 | 14.64669 | 32898 ft | 489 kts | 116° |
| 2026-05-07 03:51 | 49.33070 | 14.74563 | 32890 ft | 491 kts | 116° |
| 2026-05-07 03:51 | 49.30880 | 14.84397 | 32897 ft | 491 kts | 116° |
| 2026-05-07 03:52 | 49.28663 | 14.94309 | 32892 ft | 492 kts | 116° |
| 2026-05-07 03:52 | 49.26434 | 15.04220 | 32892 ft | 493 kts | 117° |
| 2026-05-07 03:53 | 49.24194 | 15.14138 | 32894 ft | 493 kts | 117° |
| 2026-05-07 03:53 | 49.21960 | 15.23984 | 32890 ft | 494 kts | 117° |
| 2026-05-07 03:54 | 49.19696 | 15.33916 | 32893 ft | 495 kts | 117° |
| 2026-05-07 03:54 | 49.17420 | 15.43850 | 32890 ft | 496 kts | 117° |
| 2026-05-07 03:55 | 49.15132 | 15.53788 | 32888 ft | 497 kts | 117° |
| 2026-05-07 03:55 | 49.12845 | 15.63684 | 32881 ft | 498 kts | 117° |
| 2026-05-07 03:56 | 49.10532 | 15.73647 | 32879 ft | 499 kts | 117° |
| 2026-05-07 03:56 | 49.08205 | 15.83619 | 32892 ft | 499 kts | 117° |
| 2026-05-07 03:57 | 49.05862 | 15.93613 | 32888 ft | 500 kts | 116° |
| 2026-05-07 03:57 | 49.03512 | 16.03594 | 32880 ft | 501 kts | 116° |
| 2026-05-07 03:58 | 49.01168 | 16.13501 | 32881 ft | 500 kts | 116° |
| 2026-05-07 03:58 | 48.98802 | 16.23458 | 32878 ft | 500 kts | 116° |
| 2026-05-07 03:59 | 48.96429 | 16.33397 | 32879 ft | 499 kts | 116° |
| 2026-05-07 03:59 | 48.94051 | 16.43316 | 32869 ft | 499 kts | 116° |
| 2026-05-07 04:00 | 48.91685 | 16.53135 | 32870 ft | 498 kts | 116° |
| 2026-05-07 04:00 | 48.89296 | 16.63006 | 32866 ft | 497 kts | 116° |
| 2026-05-07 04:01 | 48.86906 | 16.72839 | 32871 ft | 496 kts | 116° |
| 2026-05-07 04:01 | 48.84509 | 16.82659 | 32876 ft | 496 kts | 116° |
| 2026-05-07 04:02 | 48.82121 | 16.92403 | 32879 ft | 495 kts | 116° |
| 2026-05-07 04:02 | 48.79712 | 17.02190 | 32875 ft | 495 kts | 116° |
| 2026-05-07 04:03 | 48.76803 | 17.11530 | 32865 ft | 485 kts | 127° |
| 2026-05-07 04:03 | 48.73082 | 17.19970 | 32880 ft | 481 kts | 130° |
| 2026-05-07 04:04 | 48.69358 | 17.28304 | 32878 ft | 481 kts | 129° |
| 2026-05-07 04:04 | 48.65633 | 17.36705 | 32873 ft | 480 kts | 129° |
| 2026-05-07 04:05 | 48.61920 | 17.45100 | 32873 ft | 480 kts | 129° |
| 2026-05-07 04:05 | 48.58209 | 17.53475 | 32877 ft | 479 kts | 129° |
| 2026-05-07 04:06 | 48.54496 | 17.61828 | 32885 ft | 479 kts | 129° |
| 2026-05-07 04:06 | 48.50802 | 17.70106 | 32879 ft | 479 kts | 129° |